Country
Station

 

Weather  for  San Jose, San Jose International Airport  -  United States    United States

  
24 °C (75 °F)
    
 
 

Current METAR for San Jose, San Jose International Airport is :

KSJC 201953Z VRB06KT 10SM FEW016 24/14 A2987 RMK AO2 SLP114 T02390139

 

This is a report for San Jose, San Jose International Airport - United States.
 
The report was made 28 minutes ago, at 19:53 UTC .
The wind was blowing at a speed of 3.1 meters per second (6.9 miles per hour) from variable directions.
 
The temperature was 24 °C (75 °F), with a dew-point at 14 °C (57 °F).
The temperature felt like 26 °C (78 °F).
 
The atmospheric pressure was 1012 hPa (29.87 inHg).
The relative humidity was 53.6%.
 
There were a few clouds at a height of 488 meters (1600 feet).
 
The overall visibility was 16.1 kilometers (10.0 miles).
 

 
 
 
 

Country :   A   B   C   D   E   F   G   H   I   J   K   L   M   N   O   P   Q   R   S   T   U   V   W   Y   Z

 

Site Info  |  Disclaimer  |  Credits  |  Privacy
Contact us  |  Add to favorites
© 2013-2019 METARs - All rights reserved